createdAt,value
2018-11-07T00:05:02.867Z,40.60
2018-11-07T00:07:31.671Z,38.50
2018-11-07T00:10:00.518Z,41.23
2018-11-07T00:12:29.675Z,42.03
2018-11-07T00:14:58.297Z,40.43
2018-11-07T00:17:27.051Z,40.37
2018-11-07T00:19:56.069Z,38.27
2018-11-07T00:22:24.787Z,38.63
2018-11-07T00:24:53.529Z,39.23
2018-11-07T00:27:22.464Z,38.77
2018-11-07T00:29:51.110Z,39.20
2018-11-07T00:32:19.743Z,38.03
2018-11-07T00:34:48.993Z,39.30
2018-11-07T00:37:17.716Z,38.40
2018-11-07T00:39:46.515Z,38.90
2018-11-07T00:42:15.379Z,39.10
2018-11-07T00:44:44.059Z,38.33
2018-11-07T00:47:12.643Z,38.07
2018-11-07T00:49:41.491Z,37.10
2018-11-07T00:52:10.367Z,37.17
2018-11-07T00:54:39.230Z,38.97
2018-11-07T00:57:08.675Z,37.47
2018-11-07T00:59:37.574Z,38.47
2018-11-07T01:02:06.427Z,37.93
2018-11-07T01:04:35.473Z,38.70
2018-11-07T01:07:04.202Z,38.00
2018-11-07T01:09:32.911Z,37.50
2018-11-07T01:12:01.755Z,36.63
2018-11-07T01:14:30.383Z,34.97
2018-11-07T01:16:59.079Z,35.37
2018-11-07T01:19:28.038Z,34.47
2018-11-07T01:21:56.719Z,35.47
2018-11-07T01:24:25.435Z,34.43
2018-11-07T01:26:54.462Z,35.57
2018-11-07T01:29:23.026Z,35.73
2018-11-07T01:31:51.787Z,36.90
2018-11-07T01:34:20.763Z,35.07
2018-11-07T01:36:49.536Z,36.77
2018-11-07T01:39:18.167Z,37.30
2018-11-07T01:41:47.177Z,35.47
2018-11-07T01:44:15.906Z,35.17
2018-11-07T01:46:44.590Z,33.33
2018-11-07T01:49:13.396Z,31.97
2018-11-07T01:51:42.059Z,31.40
2018-11-07T01:54:10.863Z,31.13
2018-11-07T01:56:39.635Z,29.80
2018-11-07T01:59:08.294Z,29.47
2018-11-07T02:01:36.995Z,28.57
2018-11-07T02:04:05.799Z,28.50
2018-11-07T02:06:34.420Z,28.03
2018-11-07T02:09:03.186Z,29.43
2018-11-07T02:11:31.921Z,29.60
2018-11-07T02:14:00.706Z,28.80
2018-11-07T02:16:29.386Z,30.10
2018-11-07T02:18:58.235Z,29.27
2018-11-07T02:21:26.987Z,30.00
2018-11-07T02:23:55.627Z,30.27
2018-11-07T02:26:24.435Z,29.53
2018-11-07T02:28:53.054Z,31.50
2018-11-07T02:31:21.627Z,31.77
2018-11-07T02:33:50.699Z,29.43
2018-11-07T02:36:19.412Z,28.47
2018-11-07T02:38:48.083Z,26.30
2018-11-07T02:41:17.091Z,26.90
2018-11-07T02:43:45.721Z,26.83
2018-11-07T02:46:14.502Z,26.50
2018-11-07T02:48:43.315Z,26.17
2018-11-07T02:51:11.983Z,27.27
2018-11-07T02:53:40.638Z,26.60
2018-11-07T02:56:09.831Z,24.93
2018-11-07T02:58:38.356Z,27.33
2018-11-07T03:01:07.042Z,27.73
2018-11-07T03:03:36.053Z,27.70
2018-11-07T03:06:05.017Z,28.27
2018-11-07T03:08:33.624Z,29.70
2018-11-07T03:11:03.876Z,29.20
2018-11-07T03:13:32.806Z,30.43
2018-11-07T03:16:01.395Z,29.83
2018-11-07T03:18:30.147Z,30.50
2018-11-07T03:20:58.775Z,32.50
2018-11-07T03:23:27.403Z,31.63
2018-11-07T03:25:56.391Z,31.20
2018-11-07T03:28:25.034Z,31.40
2018-11-07T03:30:53.619Z,30.27
2018-11-07T03:33:22.554Z,31.33
2018-11-07T03:35:51.195Z,31.77
2018-11-07T03:38:19.771Z,32.47
2018-11-07T03:40:48.530Z,30.93
2018-11-07T03:43:17.382Z,30.60
2018-11-07T03:45:51.472Z,30.20
2018-11-07T03:48:20.087Z,30.07
2018-11-07T03:50:48.686Z,28.40
2018-11-07T03:53:17.615Z,29.10
2018-11-07T03:55:46.380Z,28.37
2018-11-07T03:58:15.012Z,31.60
2018-11-07T04:00:43.780Z,29.80
2018-11-07T04:03:12.399Z,30.43
2018-11-07T04:05:41.054Z,29.70
2018-11-07T04:08:10.099Z,30.07
2018-11-07T04:10:38.788Z,30.77
2018-11-07T04:13:07.442Z,30.03
2018-11-07T04:15:36.310Z,31.17
2018-11-07T04:18:05.035Z,30.83
2018-11-07T04:20:33.703Z,31.67
2018-11-07T04:23:02.655Z,31.73
2018-11-07T04:25:31.623Z,31.67
2018-11-07T04:28:00.377Z,31.33
2018-11-07T04:30:29.108Z,31.50
2018-11-07T04:32:57.832Z,32.03
2018-11-07T04:35:26.467Z,31.43
2018-11-07T04:37:55.231Z,31.57
2018-11-07T04:40:23.771Z,31.47
2018-11-07T04:42:52.393Z,31.93
2018-11-07T04:45:21.457Z,32.97
2018-11-07T04:47:50.114Z,32.03
2018-11-07T04:50:18.789Z,30.03
2018-11-07T04:52:47.470Z,29.60
2018-11-07T04:55:16.094Z,30.37
2018-11-07T04:57:44.687Z,27.40
2018-11-07T05:00:13.812Z,28.13
2018-11-07T05:02:42.815Z,28.23
2018-11-07T05:05:11.655Z,27.03
2018-11-07T05:07:40.386Z,27.27
2018-11-07T05:10:10.013Z,27.17
2018-11-07T05:12:38.871Z,26.73
2018-11-07T05:15:08.280Z,25.40
2018-11-07T05:17:36.905Z,26.17
2018-11-07T05:20:07.137Z,27.53
2018-11-07T05:22:36.023Z,26.93
2018-11-07T05:25:04.801Z,27.47
2018-11-07T05:27:33.458Z,31.93
2018-11-07T05:30:02.178Z,28.23
2018-11-07T05:32:30.835Z,26.83
2018-11-07T05:34:59.427Z,27.87
2018-11-07T05:37:28.187Z,27.00
2018-11-07T05:39:56.795Z,27.53
2018-11-07T05:42:25.358Z,28.13
2018-11-07T05:44:54.151Z,28.80
2018-11-07T05:47:22.905Z,28.53
2018-11-07T05:49:51.498Z,29.00
2018-11-07T05:52:20.305Z,28.23
2018-11-07T05:54:49.022Z,27.00
2018-11-07T05:57:17.771Z,27.63
2018-11-07T05:59:46.595Z,27.40
2018-11-07T06:02:15.206Z,28.43
2018-11-07T06:04:43.935Z,28.00
2018-11-07T06:07:12.702Z,27.80
2018-11-07T06:09:41.435Z,28.30
2018-11-07T06:12:09.995Z,29.37
2018-11-07T06:14:38.808Z,29.07
2018-11-07T06:17:07.472Z,28.43
2018-11-07T06:19:36.141Z,28.13
2018-11-07T06:22:05.123Z,28.13
2018-11-07T06:24:33.920Z,28.43
2018-11-07T06:27:02.692Z,27.73
2018-11-07T06:29:31.469Z,28.10
2018-11-07T06:32:00.033Z,26.93
2018-11-07T06:34:28.732Z,28.47
2018-11-07T06:36:57.437Z,29.73
2018-11-07T06:39:26.274Z,27.40
2018-11-07T06:41:55.101Z,27.87
2018-11-07T06:44:23.920Z,28.13
2018-11-07T06:46:54.494Z,27.90
2018-11-07T06:49:23.060Z,27.10
2018-11-07T06:51:51.718Z,27.23
2018-11-07T06:54:20.321Z,27.37
2018-11-07T06:56:49.832Z,27.90
2018-11-07T06:59:18.603Z,27.53
2018-11-07T07:01:47.139Z,27.90
2018-11-07T07:04:15.743Z,27.53
2018-11-07T07:06:44.475Z,28.87
2018-11-07T07:09:13.262Z,27.63
2018-11-07T07:11:41.866Z,27.37
2018-11-07T07:14:10.752Z,27.53
2018-11-07T07:16:39.371Z,28.10
2018-11-07T07:19:08.030Z,29.13
2018-11-07T07:21:36.731Z,27.30
2018-11-07T07:24:05.567Z,27.07
2018-11-07T07:26:34.261Z,27.13
2018-11-07T07:29:02.934Z,27.57
2018-11-07T07:31:31.526Z,29.10
2018-11-07T07:34:00.631Z,27.03
2018-11-07T07:36:29.411Z,27.93
2018-11-07T07:38:58.151Z,28.17
2018-11-07T07:41:26.779Z,28.93
2018-11-07T07:43:55.637Z,27.93
2018-11-07T07:46:24.215Z,28.13
2018-11-07T07:48:52.815Z,28.30
2018-11-07T07:51:21.483Z,27.57
2018-11-07T07:53:50.027Z,29.83
2018-11-07T07:56:18.682Z,28.83
2018-11-07T07:58:47.482Z,27.53
2018-11-07T08:01:16.151Z,27.73
2018-11-07T08:03:44.863Z,27.60
2018-11-07T08:06:13.644Z,28.37
2018-11-07T08:08:42.352Z,28.63
2018-11-07T08:11:10.986Z,28.20
2018-11-07T08:13:39.972Z,28.53
2018-11-07T08:16:08.634Z,28.03
2018-11-07T08:18:37.309Z,27.07
2018-11-07T08:21:06.065Z,27.27
2018-11-07T08:23:34.777Z,27.17
2018-11-07T08:26:03.496Z,25.83
2018-11-07T08:28:32.173Z,26.50
2018-11-07T08:31:01.034Z,26.73
2018-11-07T08:33:29.767Z,25.93
2018-11-07T08:35:58.449Z,27.27
2018-11-07T08:38:27.199Z,25.37
2018-11-07T08:40:55.841Z,26.70
2018-11-07T08:43:24.684Z,26.03
2018-11-07T08:45:53.346Z,25.67
2018-11-07T08:48:22.092Z,25.50
2018-11-07T08:50:50.913Z,25.97
2018-11-07T08:53:19.782Z,29.32
2018-11-07T08:55:48.395Z,26.13
2018-11-07T08:58:17.081Z,25.27
2018-11-07T09:00:45.981Z,26.00
2018-11-07T09:03:14.719Z,26.67
2018-11-07T09:05:43.611Z,25.87
2018-11-07T09:08:12.272Z,25.07
2018-11-07T09:10:40.863Z,25.00
2018-11-07T09:13:09.652Z,24.93
2018-11-07T09:15:38.341Z,24.87
2018-11-07T09:18:07.124Z,26.50
2018-11-07T09:20:35.835Z,26.20
2018-11-07T09:23:04.603Z,25.80
2018-11-07T09:25:33.229Z,26.17
2018-11-07T09:28:02.020Z,24.53
2018-11-07T09:30:30.903Z,25.20
2018-11-07T09:32:59.749Z,24.73
2018-11-07T09:35:28.580Z,25.70
2018-11-07T09:37:57.415Z,25.13
2018-11-07T09:40:26.095Z,25.67
2018-11-07T09:42:54.938Z,24.90
2018-11-07T09:45:23.946Z,26.23
2018-11-07T09:47:52.630Z,25.20
2018-11-07T09:50:21.464Z,25.60
2018-11-07T09:52:50.154Z,25.20
2018-11-07T09:55:20.339Z,25.63
2018-11-07T09:57:49.107Z,24.80
2018-11-07T10:00:19.048Z,25.33
2018-11-07T10:02:47.851Z,24.77
2018-11-07T10:05:17.626Z,26.40
2018-11-07T10:07:46.520Z,25.83
2018-11-07T10:10:18.698Z,25.83
2018-11-07T10:12:47.615Z,25.43
2018-11-07T10:15:16.744Z,26.23
2018-11-07T10:17:45.635Z,25.93
2018-11-07T10:20:18.230Z,25.83
2018-11-07T10:22:47.883Z,26.63
2018-11-07T10:25:16.858Z,25.87
2018-11-07T10:27:46.098Z,25.43
2018-11-07T10:30:17.389Z,26.60
2018-11-07T10:32:46.970Z,26.17
2018-11-07T10:35:15.773Z,26.33
2018-11-07T10:37:44.659Z,25.73
2018-11-07T10:40:15.376Z,25.67
2018-11-07T10:42:44.530Z,24.83
2018-11-07T10:45:13.435Z,26.27
2018-11-07T10:47:42.983Z,25.90
2018-11-07T10:50:12.855Z,25.67
2018-11-07T10:52:52.703Z,25.83
2018-11-07T10:55:21.563Z,26.13
2018-11-07T10:57:50.331Z,25.30
2018-11-07T11:00:26.140Z,24.67
2018-11-07T11:03:00.163Z,25.17
2018-11-07T11:05:29.152Z,25.90
2018-11-07T11:10:40.611Z,26.73
2018-11-07T11:13:09.714Z,24.60
2018-11-07T11:15:38.683Z,24.93
2018-11-07T11:18:07.633Z,24.87
2018-11-07T11:20:36.975Z,24.37
2018-11-07T11:23:06.087Z,24.47
2018-11-07T11:25:35.343Z,21.97
2018-11-07T11:28:04.057Z,25.40
2018-11-07T11:30:32.859Z,24.43
2018-11-07T11:33:01.667Z,24.87
2018-11-07T11:35:30.671Z,24.27
2018-11-07T11:37:59.385Z,23.70
2018-11-07T11:40:28.590Z,23.73
2018-11-07T11:42:58.911Z,28.02
2018-11-07T11:48:08.042Z,22.00
2018-11-07T11:50:37.002Z,21.73
2018-11-07T11:53:07.263Z,21.43
2018-11-07T11:55:37.848Z,22.10
2018-11-07T11:58:07.489Z,21.57
2018-11-07T12:00:37.449Z,22.07
2018-11-07T12:03:06.987Z,21.60
2018-11-07T12:05:36.452Z,22.17
2018-11-07T12:10:45.827Z,22.27
2018-11-07T12:13:15.095Z,22.83
2018-11-07T12:15:45.327Z,22.70
2018-11-07T12:18:14.112Z,22.40
2018-11-07T12:20:43.305Z,22.90
2018-11-07T12:25:50.015Z,22.87
2018-11-07T12:28:19.159Z,23.53
2018-11-07T12:30:48.941Z,23.93
2018-11-07T12:33:18.383Z,24.13
2018-11-07T12:35:47.506Z,24.87
2018-11-07T12:38:16.487Z,24.10
2018-11-07T12:40:45.718Z,26.07
2018-11-07T12:43:14.435Z,25.83
2018-11-07T12:45:43.295Z,27.07
2018-11-07T12:48:12.581Z,26.07
2018-11-07T12:50:41.212Z,25.10
2018-11-07T12:53:10.622Z,26.77
2018-11-07T12:58:19.747Z,25.70
2018-11-07T13:00:48.821Z,25.73
2018-11-07T13:03:17.588Z,27.77
2018-11-07T13:05:46.694Z,27.17
2018-11-07T13:08:16.230Z,27.57
2018-11-07T13:10:45.556Z,26.57
2018-11-07T13:16:20.082Z,26.30
2018-11-07T13:18:57.763Z,28.80
2018-11-07T13:21:26.856Z,28.33
2018-11-07T13:23:56.181Z,27.93
2018-11-07T13:26:25.250Z,28.23
2018-11-07T13:28:54.328Z,28.33
2018-11-07T13:31:25.847Z,29.37
2018-11-07T13:34:00.666Z,29.73
2018-11-07T13:36:30.009Z,29.50
2018-11-07T13:38:59.194Z,29.33
2018-11-07T13:41:27.760Z,29.77
2018-11-07T13:43:56.909Z,30.03
2018-11-07T13:46:25.858Z,30.97
2018-11-07T13:48:54.700Z,31.13
2018-11-07T13:51:23.724Z,31.03
2018-11-07T13:53:52.695Z,31.47
2018-11-07T13:56:21.555Z,31.63
2018-11-07T13:58:50.590Z,31.20
2018-11-07T14:01:19.482Z,33.00
2018-11-07T14:03:49.010Z,32.57
2018-11-07T14:06:18.583Z,32.37
2018-11-07T14:08:47.508Z,32.87
2018-11-07T14:11:16.379Z,31.60
2018-11-07T14:13:45.291Z,33.03
2018-11-07T14:16:14.186Z,32.93
2018-11-07T14:18:43.151Z,34.00
2018-11-07T14:21:12.230Z,34.83
2018-11-07T14:23:42.260Z,35.47
2018-11-07T14:26:11.112Z,35.30
2018-11-07T14:28:41.030Z,35.83
2018-11-07T14:31:09.800Z,34.70
2018-11-07T14:33:38.682Z,34.63
2018-11-07T14:36:07.878Z,35.30
2018-11-07T14:38:36.829Z,35.50
2018-11-07T14:41:05.597Z,36.37
2018-11-07T14:43:34.651Z,36.27
2018-11-07T14:46:03.434Z,36.93
2018-11-07T14:48:32.178Z,36.47
2018-11-07T14:51:01.214Z,36.33
2018-11-07T14:53:30.218Z,36.93
2018-11-07T14:55:59.061Z,38.13
2018-11-07T14:58:28.209Z,37.57
2018-11-07T15:00:57.036Z,35.47
2018-11-07T15:03:25.939Z,36.90
2018-11-07T15:05:54.911Z,38.20
2018-11-07T15:08:23.784Z,37.60
2018-11-07T15:10:52.467Z,37.73
2018-11-07T15:13:21.343Z,37.97
2018-11-07T15:15:50.127Z,36.93
2018-11-07T15:18:18.939Z,39.63
2018-11-07T15:20:47.936Z,37.40
2018-11-07T15:23:16.624Z,37.63
2018-11-07T15:25:45.890Z,38.70
2018-11-07T15:28:15.091Z,38.73
2018-11-07T15:30:44.323Z,38.20
2018-11-07T15:33:13.211Z,38.90
2018-11-07T15:35:42.410Z,39.50
2018-11-07T15:38:11.315Z,39.00
2018-11-07T15:40:39.980Z,41.03
2018-11-07T15:43:09.036Z,38.70
2018-11-07T15:45:37.866Z,40.27
2018-11-07T15:48:07.504Z,40.40
2018-11-07T15:50:42.806Z,41.37
2018-11-07T15:53:11.875Z,40.07
2018-11-07T15:55:40.991Z,39.53
2018-11-07T15:58:09.843Z,39.33
2018-11-07T16:00:38.583Z,42.80
2018-11-07T16:03:07.255Z,41.20
2018-11-07T16:05:36.426Z,39.83
2018-11-07T16:08:05.843Z,39.03
2018-11-07T16:10:34.927Z,40.60
2018-11-07T16:13:03.844Z,42.17
2018-11-07T16:15:32.890Z,42.07
2018-11-07T16:18:01.635Z,40.57
2018-11-07T16:20:30.648Z,40.93
2018-11-07T16:22:59.466Z,42.37
2018-11-07T16:25:28.441Z,40.77
2018-11-07T16:27:57.617Z,40.83
2018-11-07T16:30:26.599Z,40.87
2018-11-07T16:32:55.297Z,41.67
2018-11-07T16:35:24.462Z,41.50
2018-11-07T16:37:53.259Z,40.63
2018-11-07T16:40:22.664Z,41.57
2018-11-07T16:42:52.426Z,41.37
2018-11-07T16:45:21.347Z,40.67
2018-11-07T16:47:50.083Z,40.73
2018-11-07T16:50:19.345Z,40.93
2018-11-07T16:52:48.234Z,39.23
2018-11-07T16:55:17.029Z,39.63
2018-11-07T16:57:46.461Z,38.20
2018-11-07T17:00:21.318Z,40.97
2018-11-07T17:02:50.646Z,40.17
2018-11-07T17:05:19.964Z,41.13
2018-11-07T17:07:48.884Z,38.70
2018-11-07T17:10:19.257Z,38.87
2018-11-07T17:12:48.855Z,39.43
2018-11-07T17:15:17.471Z,38.43
2018-11-07T17:17:46.389Z,40.40
2018-11-07T17:20:15.810Z,39.60
2018-11-07T17:22:44.960Z,37.80
2018-11-07T17:25:16.025Z,37.73
2018-11-07T17:27:44.993Z,38.20
2018-11-07T17:30:14.645Z,38.00
2018-11-07T17:32:43.467Z,39.03
2018-11-07T17:35:13.585Z,38.33
2018-11-07T17:37:42.710Z,38.17
2018-11-07T17:40:15.783Z,38.33
2018-11-07T17:42:44.657Z,37.70
2018-11-07T17:45:15.271Z,40.53
2018-11-07T17:47:44.459Z,38.50
2018-11-07T17:50:14.317Z,39.30
2018-11-07T17:52:43.097Z,39.80
2018-11-07T17:55:12.947Z,39.03
2018-11-07T17:57:41.851Z,40.23
2018-11-07T18:00:13.523Z,39.23
2018-11-07T18:02:42.453Z,39.60
2018-11-07T18:05:11.270Z,39.83
2018-11-07T18:07:39.937Z,40.43
2018-11-07T18:10:11.341Z,40.10
2018-11-07T18:12:39.927Z,40.30
2018-11-07T18:15:09.082Z,41.93
2018-11-07T18:17:37.957Z,42.77
2018-11-07T18:20:08.127Z,41.87
2018-11-07T18:22:36.730Z,42.27
2018-11-07T18:25:05.891Z,43.90
2018-11-07T18:27:34.505Z,43.70
2018-11-07T18:30:03.900Z,42.10
2018-11-07T18:32:32.637Z,43.57
2018-11-07T18:35:02.548Z,44.47
2018-11-07T18:37:31.205Z,43.13
2018-11-07T18:40:02.965Z,41.77
2018-11-07T18:42:31.675Z,43.20
2018-11-07T18:45:00.207Z,42.67
2018-11-07T18:47:29.021Z,43.27
2018-11-07T18:49:57.697Z,43.83
2018-11-07T18:52:26.294Z,44.80
2018-11-07T18:54:55.232Z,44.03
2018-11-07T18:57:24.187Z,44.97
2018-11-07T18:59:53.863Z,43.30
2018-11-07T19:02:22.583Z,43.30
2018-11-07T19:04:51.439Z,44.50
2018-11-07T19:07:20.031Z,43.03
2018-11-07T19:09:48.791Z,43.60
2018-11-07T19:12:17.595Z,42.20
2018-11-07T19:14:46.195Z,44.10
2018-11-07T19:17:14.994Z,42.80
2018-11-07T19:19:43.863Z,47.93
2018-11-07T19:22:12.467Z,44.47
2018-11-07T19:24:41.303Z,42.10
2018-11-07T19:27:12.456Z,41.93
2018-11-07T19:29:41.259Z,42.87
2018-11-07T19:32:10.251Z,43.10
2018-11-07T19:34:39.099Z,40.60
2018-11-07T19:37:07.845Z,41.90
2018-11-07T19:39:36.651Z,43.63
2018-11-07T19:42:05.461Z,42.33
2018-11-07T19:44:34.167Z,41.37
2018-11-07T19:47:03.539Z,41.40
2018-11-07T19:49:32.345Z,42.90
2018-11-07T19:52:01.234Z,38.97
2018-11-07T19:54:30.303Z,41.30
2018-11-07T19:56:59.132Z,42.00
2018-11-07T19:59:27.860Z,40.73
2018-11-07T20:01:56.912Z,40.97
2018-11-07T20:04:25.824Z,40.23
2018-11-07T20:06:55.135Z,39.80
2018-11-07T20:09:23.903Z,39.60
2018-11-07T20:11:52.817Z,40.00
2018-11-07T20:14:21.626Z,40.10
2018-11-07T20:16:50.632Z,40.17
2018-11-07T20:19:19.373Z,40.37
2018-11-07T20:21:48.240Z,39.97
2018-11-07T20:24:17.707Z,39.97
2018-11-07T20:29:22.924Z,40.33
2018-11-07T20:31:51.772Z,41.03
2018-11-07T20:34:28.339Z,39.73
2018-11-07T20:36:58.075Z,40.27
2018-11-07T20:39:27.763Z,40.43
2018-11-07T20:41:57.838Z,40.00
2018-11-07T20:44:26.715Z,39.27
2018-11-07T20:46:55.618Z,40.20
2018-11-07T20:49:24.431Z,41.57
2018-11-07T20:51:53.275Z,41.23
2018-11-07T20:54:22.748Z,41.27
2018-11-07T20:56:51.333Z,40.00
2018-11-07T20:59:20.092Z,39.67
2018-11-07T21:01:49.244Z,41.03
2018-11-07T21:04:18.119Z,39.17
2018-11-07T21:06:46.927Z,41.73
2018-11-07T21:09:15.876Z,40.47
2018-11-07T21:11:44.579Z,40.50
2018-11-07T21:14:13.493Z,40.53
2018-11-07T21:16:42.338Z,38.70
2018-11-07T21:19:11.223Z,39.93
2018-11-07T21:21:40.047Z,39.63
2018-11-07T21:24:09.019Z,40.57
2018-11-07T21:26:37.838Z,41.47
2018-11-07T21:29:06.631Z,41.10
2018-11-07T21:31:35.447Z,40.43
2018-11-07T21:34:10.503Z,40.23
2018-11-07T21:36:39.603Z,40.93
2018-11-07T21:39:09.903Z,40.20
2018-11-07T21:41:38.686Z,42.63
2018-11-07T21:44:07.568Z,40.93
2018-11-07T21:46:36.263Z,41.63
2018-11-07T21:49:05.192Z,41.27
2018-11-07T21:51:34.192Z,41.73
2018-11-07T21:54:02.871Z,40.57
2018-11-07T21:56:31.677Z,42.47
2018-11-07T21:59:00.685Z,43.50
2018-11-07T22:01:29.442Z,41.97
2018-11-07T22:03:59.149Z,40.57
2018-11-07T22:06:27.999Z,41.83
2018-11-07T22:08:56.775Z,42.50
2018-11-07T22:11:25.500Z,41.20
2018-11-07T22:13:54.288Z,42.87
2018-11-07T22:16:22.964Z,42.77
2018-11-07T22:18:51.731Z,41.70
2018-11-07T22:21:20.678Z,43.10
2018-11-07T22:23:49.288Z,42.70
2018-11-07T22:26:17.935Z,43.80
2018-11-07T22:28:47.323Z,44.27
2018-11-07T22:31:16.003Z,40.13
2018-11-07T22:33:44.827Z,42.77
2018-11-07T22:36:13.852Z,42.67
2018-11-07T22:38:42.471Z,40.97
2018-11-07T22:41:11.554Z,40.80
2018-11-07T22:43:40.518Z,42.03
2018-11-07T22:46:09.375Z,41.90
2018-11-07T22:48:38.167Z,41.67
2018-11-07T22:51:07.069Z,39.70
2018-11-07T22:53:35.895Z,40.77
2018-11-07T22:56:04.828Z,41.27
2018-11-07T22:58:33.624Z,41.07
2018-11-07T23:01:07.767Z,39.60
2018-11-07T23:03:36.949Z,40.20
2018-11-07T23:06:10.086Z,41.50
2018-11-07T23:08:39.004Z,40.93
2018-11-07T23:11:08.495Z,40.57
2018-11-07T23:13:37.101Z,40.33
2018-11-07T23:16:06.177Z,41.83
2018-11-07T23:18:34.924Z,40.33
2018-11-07T23:21:03.648Z,40.90
2018-11-07T23:23:33.614Z,40.23
2018-11-07T23:26:02.343Z,39.93
2018-11-07T23:28:31.527Z,41.47
2018-11-07T23:31:00.675Z,43.07
2018-11-07T23:33:29.335Z,41.90
2018-11-07T23:35:58.197Z,43.83
2018-11-07T23:38:27.107Z,42.53
2018-11-07T23:40:55.671Z,42.27
2018-11-07T23:43:24.393Z,44.43
2018-11-07T23:45:53.566Z,45.33
2018-11-07T23:48:22.215Z,43.80
2018-11-07T23:50:51.619Z,44.57
2018-11-07T23:53:20.631Z,43.27
2018-11-07T23:55:49.266Z,43.87
2018-11-07T23:58:17.898Z,44.40
